createdAt,value
2019-04-05T00:00:50.668Z,24.23
2019-04-05T00:03:22.147Z,23.90
2019-04-05T00:05:53.097Z,24.70
2019-04-05T00:08:24.074Z,23.70
2019-04-05T00:10:55.237Z,23.18
2019-04-05T00:13:26.750Z,24.60
2019-04-05T00:15:57.407Z,23.77
2019-04-05T00:18:28.880Z,23.73
2019-04-05T00:20:59.924Z,24.40
2019-04-05T00:23:31.427Z,23.40
2019-04-05T00:26:02.106Z,23.07
2019-04-05T00:28:32.975Z,24.60
2019-04-05T00:31:03.905Z,24.98
2019-04-05T00:33:34.551Z,24.12
2019-04-05T00:36:05.608Z,24.02
2019-04-05T00:38:36.326Z,23.57
2019-04-05T00:41:07.347Z,23.27
2019-04-05T00:43:38.306Z,24.63
2019-04-05T00:46:09.290Z,23.25
2019-04-05T00:48:40.579Z,23.87
2019-04-05T00:51:11.707Z,22.85
2019-04-05T00:53:43.344Z,23.75
2019-04-05T00:56:14.021Z,23.62
2019-04-05T00:58:45.111Z,24.35
2019-04-05T01:01:16.194Z,24.02
2019-04-05T01:03:47.366Z,22.42
2019-04-05T01:06:18.589Z,23.32
2019-04-05T01:08:49.522Z,24.45
2019-04-05T01:11:20.702Z,24.37
2019-04-05T01:13:52.898Z,23.45
2019-04-05T01:16:23.726Z,23.55
2019-04-05T01:18:54.772Z,22.75
2019-04-05T01:21:26.331Z,22.62
2019-04-05T01:23:59.322Z,23.50
2019-04-05T01:26:30.192Z,23.00
2019-04-05T01:29:01.556Z,23.65
2019-04-05T01:31:32.631Z,22.98
2019-04-05T01:34:05.562Z,22.65
2019-04-05T01:36:36.589Z,23.47
2019-04-05T01:39:07.637Z,23.75
2019-04-05T01:41:38.514Z,23.45
2019-04-05T01:44:09.688Z,23.10
2019-04-05T01:46:40.997Z,23.27
2019-04-05T01:49:12.335Z,22.70
2019-04-05T01:51:43.633Z,23.02
2019-04-05T01:54:14.740Z,23.73
2019-04-05T01:56:45.514Z,22.40
2019-04-05T01:59:16.557Z,23.62
2019-04-05T02:01:48.069Z,23.32
2019-04-05T02:04:19.354Z,24.85
2019-04-05T02:06:51.803Z,23.47
2019-04-05T02:09:22.993Z,22.65
2019-04-05T02:11:54.099Z,22.15
2019-04-05T02:14:25.215Z,24.05
2019-04-05T02:16:56.348Z,24.25
2019-04-05T02:19:27.294Z,22.67
2019-04-05T02:21:58.205Z,22.00
2019-04-05T02:24:29.585Z,25.80
2019-04-05T02:27:01.414Z,23.47
2019-04-05T02:29:33.453Z,25.05
2019-04-05T02:32:04.450Z,24.30
2019-04-05T02:34:35.306Z,24.85
2019-04-05T02:37:06.088Z,24.52
2019-04-05T02:39:37.017Z,24.55
2019-04-05T02:42:08.057Z,24.70
2019-04-05T02:44:39.112Z,23.62
2019-04-05T02:47:10.193Z,23.90
2019-04-05T02:49:41.418Z,24.20
2019-04-05T02:52:12.675Z,24.00
2019-04-05T02:54:43.695Z,23.30
2019-04-05T02:57:14.784Z,22.75
2019-04-05T02:59:45.715Z,23.83
2019-04-05T03:02:16.396Z,23.52
2019-04-05T03:04:48.595Z,22.45
2019-04-05T03:07:19.411Z,23.05
2019-04-05T03:09:50.692Z,23.52
2019-04-05T03:12:21.618Z,22.58
2019-04-05T03:14:52.915Z,22.37
2019-04-05T03:17:24.157Z,22.25
2019-04-05T03:19:55.322Z,22.35
2019-04-05T03:22:26.482Z,22.67
2019-04-05T03:24:58.230Z,22.45
2019-04-05T03:27:31.982Z,22.15
2019-04-05T03:30:02.880Z,21.97
2019-04-05T03:32:33.832Z,21.93
2019-04-05T03:35:06.527Z,21.62
2019-04-05T03:37:37.898Z,21.35
2019-04-05T03:40:09.145Z,22.40
2019-04-05T03:42:40.022Z,22.55
2019-04-05T03:45:11.022Z,22.07
2019-04-05T03:47:41.931Z,21.17
2019-04-05T03:50:12.963Z,20.85
2019-04-05T03:52:44.003Z,22.60
2019-04-05T03:55:14.908Z,21.02
2019-04-05T03:57:45.887Z,21.33
2019-04-05T04:00:16.675Z,21.95
2019-04-05T04:02:47.863Z,22.00
2019-04-05T04:05:19.445Z,21.77
2019-04-05T04:07:50.437Z,21.45
2019-04-05T04:10:21.514Z,21.55
2019-04-05T04:12:52.616Z,20.32
2019-04-05T04:15:23.547Z,22.40
2019-04-05T04:17:55.773Z,21.70
2019-04-05T04:20:30.215Z,22.02
2019-04-05T04:23:01.525Z,22.15
2019-04-05T04:25:32.768Z,21.93
2019-04-05T04:28:03.689Z,22.70
2019-04-05T04:30:34.967Z,22.07
2019-04-05T04:33:06.353Z,22.27
2019-04-05T04:35:37.810Z,22.93
2019-04-05T04:38:09.175Z,23.62
2019-04-05T04:40:39.775Z,23.85
2019-04-05T04:43:11.072Z,23.80
2019-04-05T04:45:42.306Z,22.77
2019-04-05T04:48:13.406Z,23.85
2019-04-05T04:50:44.897Z,24.37
2019-04-05T04:53:15.771Z,23.40
2019-04-05T04:55:47.660Z,23.77
2019-04-05T04:58:18.481Z,22.60
2019-04-05T05:00:49.462Z,24.55
2019-04-05T05:03:20.446Z,23.38
2019-04-05T05:05:51.275Z,23.25
2019-04-05T05:08:22.154Z,24.43
2019-04-05T05:10:53.433Z,24.18
2019-04-05T05:13:24.559Z,23.27
2019-04-05T05:15:56.037Z,23.42
2019-04-05T05:18:26.838Z,24.47
2019-04-05T05:20:58.488Z,24.50
2019-04-05T05:23:30.781Z,24.25
2019-04-05T05:26:01.659Z,25.70
2019-04-05T05:28:33.178Z,24.80
2019-04-05T05:31:05.058Z,23.12
2019-04-05T05:33:36.880Z,24.30
2019-04-05T05:36:10.464Z,24.45
2019-04-05T05:38:40.390Z,24.43
2019-04-05T05:41:11.912Z,26.30
2019-04-05T05:43:43.376Z,26.57
2019-04-05T05:46:14.412Z,31.82
2019-04-05T05:48:45.403Z,32.80
2019-04-05T05:51:16.535Z,26.80
2019-04-05T05:53:47.670Z,24.27
2019-04-05T05:56:18.801Z,24.70
2019-04-05T05:58:49.849Z,22.53
2019-04-05T06:01:20.926Z,22.87
2019-04-05T06:03:52.210Z,21.97
2019-04-05T06:06:23.460Z,21.30
2019-04-05T06:08:55.041Z,20.70
2019-04-05T06:11:26.820Z,19.70
2019-04-05T06:13:59.216Z,19.37
2019-04-05T06:16:30.750Z,20.25
2019-04-05T06:19:02.109Z,19.32
2019-04-05T06:21:33.173Z,19.57
2019-04-05T06:24:05.432Z,18.92
2019-04-05T06:26:36.370Z,18.80
2019-04-05T06:29:07.888Z,19.90
2019-04-05T06:31:39.114Z,18.50
2019-04-05T06:34:10.116Z,18.23
2019-04-05T06:36:40.980Z,18.67
2019-04-05T06:39:12.193Z,18.98
2019-04-05T06:41:43.451Z,19.55
2019-04-05T06:44:14.868Z,20.12
2019-04-05T06:46:46.470Z,19.70
2019-04-05T06:49:17.734Z,27.22
2019-04-05T06:51:49.099Z,24.10
2019-04-05T06:54:20.155Z,32.53
2019-04-05T06:56:54.668Z,22.15
2019-04-05T06:59:25.829Z,32.05
2019-04-05T07:01:57.329Z,41.30
2019-04-05T07:04:31.067Z,25.15
2019-04-05T07:07:02.046Z,24.63
2019-04-05T07:09:34.317Z,20.48
2019-04-05T07:12:05.975Z,22.98
2019-04-05T07:14:36.922Z,22.95
2019-04-05T07:17:08.389Z,19.42
2019-04-05T07:19:39.679Z,20.70
2019-04-05T07:22:11.448Z,19.45
2019-04-05T07:24:42.676Z,19.20
2019-04-05T07:27:13.827Z,19.23
2019-04-05T07:29:45.158Z,19.42
2019-04-05T07:32:16.303Z,17.80
2019-04-05T07:34:47.637Z,19.37
2019-04-05T07:37:18.924Z,18.40
2019-04-05T07:39:49.755Z,20.82
2019-04-05T07:42:20.565Z,18.00
2019-04-05T07:44:52.251Z,18.85
2019-04-05T07:47:23.462Z,25.05
2019-04-05T07:49:54.406Z,20.80
2019-04-05T07:52:26.003Z,20.45
2019-04-05T07:54:56.846Z,18.15
2019-04-05T07:57:28.391Z,19.05
2019-04-05T07:59:59.442Z,17.23
2019-04-05T08:02:30.733Z,18.27
2019-04-05T08:05:02.099Z,19.07
2019-04-05T08:07:35.414Z,19.10
2019-04-05T08:10:08.383Z,17.40
2019-04-05T08:12:39.831Z,16.85
2019-04-05T08:15:11.522Z,18.05
2019-04-05T08:17:42.496Z,16.10
2019-04-05T08:20:13.940Z,17.32
2019-04-05T08:22:45.624Z,16.70
2019-04-05T08:25:16.703Z,17.42
2019-04-05T08:27:47.803Z,16.23
2019-04-05T08:30:19.161Z,16.52
2019-04-05T08:32:50.397Z,16.17
2019-04-05T08:35:23.618Z,14.98
2019-04-05T08:37:55.765Z,15.30
2019-04-05T08:40:27.299Z,15.63
2019-04-05T08:42:58.460Z,15.18
2019-04-05T08:45:31.105Z,14.75
2019-04-05T08:48:04.493Z,15.75
2019-04-05T08:50:37.072Z,14.07
2019-04-05T08:53:09.216Z,13.68
2019-04-05T08:55:41.213Z,13.43
2019-04-05T08:58:15.077Z,14.53
2019-04-05T09:00:47.528Z,14.03
2019-04-05T09:03:19.187Z,13.13
2019-04-05T10:15:44.160Z,12.00
2019-04-05T10:18:16.054Z,11.38
2019-04-05T10:20:47.225Z,10.90
2019-04-05T10:23:18.366Z,11.88
2019-04-05T10:25:50.123Z,11.50
2019-04-05T10:28:21.624Z,12.55
2019-04-05T10:30:53.267Z,11.63
2019-04-05T10:33:24.529Z,12.28
2019-04-05T10:35:55.494Z,12.47
2019-04-05T10:38:26.868Z,12.30
2019-04-05T10:40:57.902Z,10.48
2019-04-05T10:43:28.703Z,11.28
2019-04-05T10:45:59.744Z,11.20
2019-04-05T10:48:31.359Z,12.70
2019-04-05T10:51:03.139Z,12.33
2019-04-05T10:53:36.491Z,12.90
2019-04-05T10:56:08.055Z,13.53
2019-04-05T10:58:39.398Z,15.68
2019-04-05T11:01:10.903Z,12.85
2019-04-05T11:03:42.474Z,12.40
2019-04-05T11:06:13.926Z,11.12
2019-04-05T11:08:45.453Z,10.40
2019-04-05T11:11:17.001Z,10.20
2019-04-05T11:13:48.264Z,10.58
2019-04-05T11:16:19.514Z,10.80
2019-04-05T11:18:51.393Z,11.25
2019-04-05T11:21:22.554Z,10.72
2019-04-05T11:23:55.509Z,10.82
2019-04-05T11:26:25.952Z,10.45
2019-04-05T11:28:57.055Z,10.63
2019-04-05T11:31:29.143Z,10.85
2019-04-05T11:34:00.360Z,10.70
2019-04-05T11:36:32.217Z,9.75
2019-04-05T11:39:07.776Z,11.03
2019-04-05T11:41:38.867Z,10.20
2019-04-05T11:44:10.008Z,11.60
2019-04-05T11:46:41.823Z,10.70
2019-04-05T11:49:13.744Z,10.98
2019-04-05T11:51:44.961Z,11.10
2019-04-05T11:54:18.377Z,9.80
2019-04-05T11:56:48.049Z,10.20
2019-04-05T11:59:21.955Z,9.85
2019-04-05T12:01:54.324Z,12.58
2019-04-05T12:04:24.987Z,11.78
2019-04-05T12:06:56.166Z,11.50
2019-04-05T12:09:27.009Z,10.18
2019-04-05T12:11:57.594Z,11.83
2019-04-05T12:14:30.410Z,10.60
2019-04-05T12:17:05.659Z,9.83
2019-04-05T12:19:38.270Z,9.30
2019-04-05T12:22:13.268Z,9.03
2019-04-05T12:24:44.043Z,9.08
2019-04-05T12:27:14.804Z,8.25
2019-04-05T12:29:45.523Z,8.80
2019-04-05T12:32:33.418Z,8.60
2019-04-05T12:34:57.941Z,8.08
2019-04-05T12:37:28.829Z,7.10
2019-04-05T12:39:59.894Z,8.40
2019-04-05T12:42:30.751Z,7.60
2019-04-05T12:45:02.958Z,7.58
2019-04-05T12:47:34.078Z,7.72
2019-04-05T12:50:06.812Z,8.95
2019-04-05T12:52:37.688Z,7.80
2019-04-05T12:55:08.498Z,8.15
2019-04-05T12:57:39.317Z,8.50
2019-04-05T13:00:26.711Z,8.88
2019-04-05T13:02:58.364Z,8.45
2019-04-05T13:05:29.080Z,7.42
2019-04-05T13:08:01.356Z,7.50
2019-04-05T13:10:32.310Z,7.62
2019-04-05T13:13:03.164Z,7.75
2019-04-05T13:15:34.089Z,7.45
2019-04-05T13:18:05.009Z,7.95
2019-04-05T13:20:39.441Z,9.65
2019-04-05T13:23:10.693Z,9.08
2019-04-05T13:25:41.731Z,8.93
2019-04-05T13:28:13.748Z,8.05
2019-04-05T13:30:48.116Z,8.78
2019-04-05T13:33:17.797Z,8.43
2019-04-05T13:35:57.133Z,7.75
2019-04-05T13:38:29.858Z,8.35
2019-04-05T13:41:02.213Z,6.95
2019-04-05T13:43:33.223Z,7.05
2019-04-05T13:46:04.102Z,7.87
2019-04-05T13:48:35.066Z,8.05
2019-04-05T13:51:07.259Z,7.03
2019-04-05T13:53:38.413Z,7.90
2019-04-05T13:56:11.074Z,8.78
2019-04-05T13:58:45.999Z,8.35
2019-04-05T14:01:14.585Z,8.80
2019-04-05T14:03:45.206Z,9.40
2019-04-05T14:06:15.923Z,9.43
2019-04-05T14:08:46.842Z,9.00
2019-04-05T14:11:17.972Z,9.05
2019-04-05T14:13:48.800Z,8.83
2019-04-05T14:16:19.737Z,9.30
2019-04-05T14:18:50.729Z,8.55
2019-04-05T14:21:22.499Z,9.25
2019-04-05T14:23:53.960Z,9.08
2019-04-05T14:26:24.986Z,9.28
2019-04-05T14:28:55.951Z,9.15
2019-04-05T14:31:26.875Z,9.93
2019-04-05T14:33:57.630Z,11.25
2019-04-05T14:36:28.421Z,10.13
2019-04-05T14:38:59.301Z,9.03
2019-04-05T14:41:29.966Z,8.25
2019-04-05T14:44:00.549Z,10.15
2019-04-05T14:46:32.637Z,8.48
2019-04-05T14:49:04.704Z,7.62
2019-04-05T14:51:35.377Z,8.45
2019-04-05T14:54:09.887Z,9.70
2019-04-05T14:56:41.473Z,8.70
2019-04-05T14:59:12.187Z,9.38
2019-04-05T15:01:47.153Z,10.72
2019-04-05T15:04:18.888Z,10.45
2019-04-05T15:06:50.643Z,10.68
2019-04-05T15:09:25.566Z,9.85
2019-04-05T15:11:56.493Z,8.73
2019-04-05T15:14:27.915Z,8.35
2019-04-05T15:16:59.911Z,8.38
2019-04-05T15:19:31.545Z,7.87
2019-04-05T15:22:05.980Z,8.38
2019-04-05T15:24:35.242Z,8.55
2019-04-05T15:27:06.630Z,8.40
2019-04-05T15:29:38.561Z,8.35
2019-04-05T15:32:09.786Z,8.48
2019-04-05T15:34:42.854Z,9.10
2019-04-05T15:37:16.004Z,8.78
2019-04-05T15:39:47.040Z,9.93
2019-04-05T15:42:18.403Z,9.20
2019-04-05T15:44:49.588Z,11.22
2019-04-05T15:47:23.244Z,9.03
2019-04-05T15:49:53.495Z,10.58
2019-04-05T15:52:27.888Z,10.78
2019-04-05T15:54:58.059Z,11.57
2019-04-05T15:57:33.329Z,12.30
2019-04-05T16:00:04.815Z,12.33
2019-04-05T16:02:35.944Z,11.05
2019-04-05T16:05:08.549Z,10.50
2019-04-05T16:07:39.340Z,11.28
2019-04-05T16:10:11.065Z,11.78
2019-04-05T16:12:41.930Z,10.90
2019-04-05T16:15:13.058Z,11.22
2019-04-05T16:17:44.487Z,13.00
2019-04-05T16:20:16.441Z,12.25
2019-04-05T16:22:47.867Z,11.45
2019-04-05T16:25:19.452Z,20.72
2019-04-05T16:27:50.441Z,82.72
2019-04-05T16:30:21.686Z,46.33
2019-04-05T16:32:53.047Z,15.85
2019-04-05T16:35:24.238Z,20.32
2019-04-05T16:37:55.132Z,43.98
2019-04-05T16:40:26.559Z,62.00
2019-04-05T16:43:02.575Z,39.40
2019-04-05T16:45:30.616Z,34.10
2019-04-05T16:48:02.084Z,48.87
2019-04-05T16:50:36.228Z,23.18
2019-04-05T16:53:06.952Z,25.88
2019-04-05T16:55:38.259Z,29.18
2019-04-05T16:58:10.603Z,27.48
2019-04-05T17:00:42.168Z,25.35
2019-04-05T17:03:13.706Z,24.18
2019-04-05T17:05:45.098Z,20.45
2019-04-05T17:08:16.632Z,22.77
2019-04-05T17:10:47.960Z,25.80
2019-04-05T17:13:19.357Z,24.20
2019-04-05T17:15:50.351Z,22.77
2019-04-05T17:18:22.040Z,20.70
2019-04-05T17:20:53.395Z,19.00
2019-04-05T17:23:24.091Z,16.27
2019-04-05T17:25:56.055Z,15.60
2019-04-05T17:28:29.114Z,16.90
2019-04-05T17:31:01.952Z,17.52
2019-04-05T17:33:38.869Z,18.67
2019-04-05T17:36:11.515Z,18.70
2019-04-05T17:38:42.872Z,19.05
2019-04-05T17:41:14.454Z,18.42
2019-04-05T17:43:51.284Z,16.55
2019-04-05T17:46:34.806Z,17.07
2019-04-05T17:49:09.893Z,17.45
2019-04-05T17:51:52.450Z,19.05
2019-04-05T17:54:24.635Z,19.02
2019-04-05T17:56:56.725Z,21.50
2019-04-05T17:59:28.724Z,22.10
2019-04-05T18:02:00.063Z,25.00
2019-04-05T18:04:32.138Z,24.65
2019-04-05T18:07:03.297Z,23.75
2019-04-05T18:09:34.694Z,22.10
2019-04-05T18:12:06.290Z,20.50
2019-04-05T18:14:42.619Z,19.52
2019-04-05T18:17:24.630Z,20.40
2019-04-05T18:20:00.075Z,20.55
2019-04-05T18:22:31.298Z,21.07
2019-04-05T18:25:03.331Z,23.22
2019-04-05T18:27:35.733Z,25.55
2019-04-05T18:30:08.442Z,24.10
2019-04-05T18:32:40.213Z,23.27
2019-04-05T18:35:14.181Z,21.48
2019-04-05T18:37:45.490Z,21.85
2019-04-05T18:40:18.810Z,18.98
2019-04-05T18:42:50.056Z,18.55
2019-04-05T18:45:27.804Z,18.25
2019-04-05T18:48:09.755Z,19.70
2019-04-05T18:50:49.894Z,20.20
2019-04-05T18:53:37.463Z,17.77
2019-04-05T18:56:09.299Z,17.57
2019-04-05T18:59:01.251Z,17.37
2019-04-05T19:01:46.927Z,17.87
2019-04-05T19:04:24.939Z,19.05
2019-04-05T19:07:06.794Z,18.35
2019-04-05T19:09:44.096Z,16.95
2019-04-05T19:12:15.746Z,18.15
2019-04-05T19:14:49.646Z,18.32
2019-04-05T19:17:24.437Z,19.90
2019-04-05T19:20:17.931Z,18.57
2019-04-05T19:23:04.611Z,18.42
2019-04-05T19:25:38.843Z,18.70
2019-04-05T19:28:12.983Z,20.20
2019-04-05T19:48:49.811Z,17.90
2019-04-05T19:51:21.213Z,17.50
2019-04-05T19:54:01.004Z,19.90
2019-04-05T19:56:26.050Z,17.75
2019-04-05T19:58:58.404Z,19.73
2019-04-05T20:01:29.628Z,18.67
2019-04-05T20:04:02.490Z,19.25
2019-04-05T20:06:33.489Z,18.85
2019-04-05T20:09:05.753Z,18.60
2019-04-05T20:11:36.888Z,18.45
2019-04-05T20:14:08.172Z,20.92
2019-04-05T20:16:39.283Z,20.68
2019-04-05T20:19:12.073Z,32.23
2019-04-05T20:21:43.315Z,20.85
2019-04-05T20:24:16.597Z,19.50
2019-04-05T20:26:48.084Z,22.87
2019-04-05T20:29:21.495Z,23.87
2019-04-05T20:31:52.029Z,26.35
2019-04-05T20:34:26.578Z,27.82
2019-04-05T20:36:57.651Z,27.07
2019-04-05T20:39:28.509Z,36.10
2019-04-05T20:41:59.464Z,61.40
2019-04-05T20:44:30.423Z,46.30
2019-04-05T20:47:02.108Z,117.65
2019-04-05T20:49:33.364Z,144.72
2019-04-05T20:52:04.092Z,111.85
2019-04-05T20:54:34.923Z,57.88
2019-04-05T20:57:05.840Z,47.08
2019-04-05T20:59:36.476Z,27.48
2019-04-05T21:02:07.277Z,27.25
2019-04-05T21:04:38.127Z,23.05
2019-04-05T21:07:09.142Z,22.80
2019-04-05T21:09:41.879Z,23.45
2019-04-05T21:12:12.898Z,31.17
2019-04-05T21:14:43.851Z,33.23
2019-04-05T21:17:15.390Z,29.80
2019-04-05T21:19:46.384Z,26.25
2019-04-05T21:22:17.750Z,23.50
2019-04-05T21:24:48.785Z,23.85
2019-04-05T21:27:20.072Z,26.05
2019-04-05T21:29:51.023Z,28.65
2019-04-05T21:32:21.985Z,29.02
2019-04-05T21:34:53.501Z,26.93
2019-04-05T21:37:26.470Z,26.62
2019-04-05T21:39:57.594Z,24.55
2019-04-05T21:42:29.436Z,25.25
2019-04-05T21:45:00.549Z,26.62
2019-04-05T21:47:31.706Z,27.20
2019-04-05T21:50:02.592Z,25.77
2019-04-05T21:52:33.693Z,25.40
2019-04-05T21:55:06.503Z,36.20
2019-04-05T21:57:38.026Z,28.50
2019-04-05T22:00:12.829Z,30.70
2019-04-05T22:02:46.521Z,37.73
2019-04-05T22:05:18.462Z,38.40
2019-04-05T22:07:51.532Z,29.90
2019-04-05T22:10:23.065Z,34.13
2019-04-05T22:12:54.852Z,32.67
2019-04-05T22:15:26.521Z,30.40
2019-04-05T22:17:58.214Z,30.48
2019-04-05T22:20:29.605Z,32.50
2019-04-05T22:23:00.765Z,30.80
2019-04-05T22:25:32.782Z,28.77
2019-04-05T22:28:03.871Z,28.73
2019-04-05T22:30:35.228Z,28.85
2019-04-05T22:33:06.213Z,33.90
2019-04-05T22:35:38.046Z,31.93
2019-04-05T22:38:09.331Z,29.57
2019-04-05T22:40:40.846Z,33.35
2019-04-05T22:43:12.513Z,27.82
2019-04-05T22:45:43.239Z,27.00
2019-04-05T22:48:14.361Z,27.60
2019-04-05T22:50:45.596Z,29.85
2019-04-05T22:53:16.650Z,29.02
2019-04-05T22:55:47.900Z,28.50
2019-04-05T22:58:19.328Z,29.80
2019-04-05T23:00:49.952Z,29.52
2019-04-05T23:03:20.966Z,29.18
2019-04-05T23:05:51.684Z,28.95
2019-04-05T23:08:22.794Z,29.05
2019-04-05T23:10:53.541Z,29.30
2019-04-05T23:15:54.877Z,28.90
2019-04-05T23:18:26.452Z,27.07
2019-04-05T23:21:00.429Z,28.57
2019-04-05T23:23:31.611Z,29.90
2019-04-05T23:26:02.883Z,30.00
2019-04-05T23:28:34.141Z,28.75
2019-04-05T23:31:05.551Z,29.70
2019-04-05T23:33:39.982Z,28.15
2019-04-05T23:36:10.599Z,27.45
2019-04-05T23:38:41.615Z,27.85
2019-04-05T23:41:12.520Z,27.05
2019-04-05T23:43:44.025Z,26.07
2019-04-05T23:46:15.105Z,26.62
2019-04-05T23:48:47.536Z,26.65
2019-04-05T23:51:19.011Z,26.75
2019-04-05T23:53:53.209Z,25.77
2019-04-05T23:56:24.685Z,24.27
2019-04-05T23:58:55.541Z,24.43
